Time;durP1;ratioP1;P1;durP2;ratioP2;P2;SDS_P1;SDS_P2;PMS_P1;PMS_P2;Temp;Humidity;BMP_temperature;BMP_pressure;BME280_temperature;BME280_humidity;BME280_pressure;Samples;Min_cycle;Max_cycle;Signal;HPM_P1;HPM_P2
2022/02/20 00:01:04;;;;;;;12.43;4.75;;;;;;;3.14;65.82;99851.88;1761950;81;27552;-72
2022/02/20 00:03:30;;;;;;;12.60;4.55;;;;;;;3.12;65.89;99858.04;1761820;81;25559;-71
2022/02/20 00:05:57;;;;;;;10.65;3.67;;;;;;;3.08;65.64;99852.95;1761934;81;25597;-72
2022/02/20 00:08:23;;;;;;;11.97;4.60;;;;;;;3.07;65.89;99852.16;1761975;81;25485;-70
2022/02/20 00:10:50;;;;;;;13.22;4.75;;;;;;;3.05;65.54;99854.30;1762007;81;25594;-69
2022/02/20 00:13:17;;;;;;;12.30;3.92;;;;;;;3.04;65.78;99862.05;1761923;81;28111;-70
2022/02/20 00:15:44;;;;;;;15.23;4.87;;;;;;;3.01;65.80;99857.23;1761810;81;25720;-70
2022/02/20 00:18:11;;;;;;;9.50;3.72;;;;;;;2.99;65.81;99855.38;1761919;81;25510;-71
2022/02/20 00:20:37;;;;;;;9.88;4.37;;;;;;;2.98;65.66;99844.44;1761943;81;26156;-71
2022/02/20 00:23:04;;;;;;;13.78;4.53;;;;;;;2.95;65.78;99856.45;1761988;81;25368;-70
2022/02/20 00:25:34;;;;;;;10.55;3.58;;;;;;;2.91;65.71;99852.72;1761986;81;28149;-70
2022/02/20 00:28:02;;;;;;;9.15;4.05;;;;;;;2.89;65.74;99860.17;1761940;81;26014;-71
2022/02/20 00:30:29;;;;;;;12.70;4.40;;;;;;;2.86;65.79;99854.06;1734714;81;25440;-70
2022/02/20 00:32:58;;;;;;;8.88;4.30;;;;;;;2.85;65.75;99852.98;1761909;81;25643;-70
2022/02/20 00:35:27;;;;;;;9.05;4.22;;;;;;;2.82;65.76;99858.31;1762080;81;25410;-69
2022/02/20 00:37:55;;;;;;;14.13;5.35;;;;;;;2.80;65.77;99852.45;1734472;81;27585;-69
2022/02/20 00:40:22;;;;;;;11.80;4.80;;;;;;;2.79;65.92;99852.17;1761881;81;25404;-69
2022/02/20 00:42:49;;;;;;;13.30;4.65;;;;;;;2.74;65.73;99845.49;1761940;81;25443;-69
2022/02/20 00:45:16;;;;;;;10.90;4.72;;;;;;;2.74;65.85;99838.30;1761973;81;26361;-69
2022/02/20 00:47:44;;;;;;;7.45;3.67;;;;;;;2.73;65.68;99833.23;1762330;81;25485;-69
2022/02/20 00:50:11;;;;;;;12.10;3.58;;;;;;;2.73;65.64;99827.88;1762960;81;27783;-69
2022/02/20 00:52:38;;;;;;;11.45;4.80;;;;;;;2.72;65.59;99824.39;1762119;81;25400;-70
2022/02/20 00:55:07;;;;;;;12.93;4.62;;;;;;;2.72;65.76;99835.62;1762250;81;25472;-69
2022/02/20 00:57:34;;;;;;;11.33;5.40;;;;;;;2.72;65.67;99836.95;1762153;81;26132;-70
2022/02/20 01:00:01;;;;;;;8.70;4.25;;;;;;;2.69;65.58;99834.30;1762005;81;25634;-69
2022/02/20 01:02:28;;;;;;;10.23;3.98;;;;;;;2.67;65.41;99839.08;1761905;81;27552;-69
2022/02/20 01:04:55;;;;;;;11.08;4.45;;;;;;;2.69;65.48;99836.15;1761881;81;25612;-69
2022/02/20 01:07:22;;;;;;;9.63;3.62;;;;;;;2.67;65.37;99828.95;1761964;81;25587;-68
2022/02/20 01:09:49;;;;;;;7.78;4.12;;;;;;;2.65;65.45;99827.88;1762086;81;26327;-69
2022/02/20 01:12:17;;;;;;;11.43;3.47;;;;;;;2.61;65.33;99827.61;1762170;81;25621;-69
2022/02/20 01:14:45;;;;;;;8.88;3.75;;;;;;;2.59;65.43;99822.28;1762334;81;28290;-69
2022/02/20 01:17:14;;;;;;;8.65;3.55;;;;;;;2.57;65.47;99824.40;1760671;81;25598;-69
2022/02/20 01:19:42;;;;;;;9.00;3.80;;;;;;;2.56;65.33;99822.81;1756991;81;25143;-68
2022/02/20 01:22:10;;;;;;;11.20;4.10;;;;;;;2.51;65.36;99819.59;1756740;81;26009;-69
2022/02/20 01:24:37;;;;;;;9.53;4.33;;;;;;;2.48;65.36;99822.80;1756593;81;25136;-70
2022/02/20 01:27:04;;;;;;;11.55;3.47;;;;;;;2.43;65.39;99822.80;1756240;81;28337;-71
2022/02/20 01:29:31;;;;;;;12.03;4.08;;;;;;;2.39;65.42;99829.20;1756107;81;25570;-72
2022/02/20 01:31:58;;;;;;;11.63;4.30;;;;;;;2.35;65.46;99834.81;1726615;81;25482;-72
2022/02/20 01:34:24;;;;;;;10.40;3.92;;;;;;;2.30;65.46;99828.64;1756194;81;25673;-72
2022/02/20 01:36:50;;;;;;;9.98;3.60;;;;;;;2.26;65.45;99831.59;1726877;81;25631;-72
2022/02/20 01:39:17;;;;;;;9.43;3.85;;;;;;;2.23;65.48;99824.90;1758449;81;27483;-72
2022/02/20 01:41:45;;;;;;;8.30;3.35;;;;;;;2.18;65.61;99816.38;1758582;81;25377;-73
2022/02/20 01:44:11;;;;;;;7.95;3.40;;;;;;;2.14;65.62;99815.28;1758505;81;25405;-73
2022/02/20 01:46:38;;;;;;;10.30;3.80;;;;;;;2.09;65.52;99817.94;1756208;81;25587;-73
2022/02/20 01:49:04;;;;;;;10.68;4.08;;;;;;;2.03;65.54;99807.80;1756230;81;25549;-73
2022/02/20 01:51:31;;;;;;;12.58;4.65;;;;;;;1.99;65.46;99808.58;1756226;81;27298;-73
2022/02/20 01:53:57;;;;;;;9.60;3.92;;;;;;;1.93;65.56;99808.32;1756128;81;25591;-73
2022/02/20 01:56:24;;;;;;;12.50;3.70;;;;;;;1.90;65.70;99802.17;1756206;81;25578;-73
2022/02/20 01:58:51;;;;;;;7.42;4.22;;;;;;;1.85;65.71;99794.95;1756233;81;25523;-72
2022/02/20 02:01:18;;;;;;;9.78;4.17;;;;;;;1.82;65.79;99793.63;1756266;81;25442;-73
2022/02/20 02:03:44;;;;;;;9.25;4.25;;;;;;;1.79;65.97;99786.14;1756150;81;27539;-73
2022/02/20 02:06:11;;;;;;;10.28;3.92;;;;;;;1.76;66.01;99781.33;1756132;81;25686;-73
2022/02/20 02:08:39;;;;;;;13.65;4.95;;;;;;;1.74;65.85;99777.31;1756229;81;25452;-74
2022/02/20 02:11:08;;;;;;;12.53;4.67;;;;;;;1.71;66.05;99778.66;1756185;81;25490;-73
2022/02/20 02:13:35;;;;;;;16.20;4.25;;;;;;;1.67;65.99;99777.59;1756225;81;25444;-73
2022/02/20 02:16:01;;;;;;;11.20;4.08;;;;;;;1.63;66.08;99777.82;1726569;81;27586;-73
2022/02/20 02:18:28;;;;;;;9.45;4.58;;;;;;;1.58;65.98;99773.27;1759663;81;25785;-73
2022/02/20 02:20:54;;;;;;;12.10;4.10;;;;;;;1.55;66.11;99770.33;1761847;81;25618;-73
2022/02/20 02:23:21;;;;;;;10.23;4.20;;;;;;;1.51;66.15;99767.92;1761847;81;26157;-73
2022/02/20 02:25:51;;;;;;;11.20;4.42;;;;;;;1.48;66.23;99758.57;1761866;81;25605;-73
2022/02/20 02:28:17;;;;;;;10.90;4.17;;;;;;;1.46;66.28;99756.70;1761671;81;27463;-73
2022/02/20 02:30:47;;;;;;;12.43;4.42;;;;;;;1.42;66.36;99756.43;1761804;81;25383;-73
2022/02/20 02:33:29;;;;;;;14.18;4.05;;;;;;;1.40;66.52;99751.90;1761856;81;25555;-73
2022/02/20 02:35:57;;;;;;;10.63;4.40;;;;;;;1.38;66.47;99752.70;1761805;81;25555;-73
2022/02/20 02:38:26;;;;;;;11.63;3.95;;;;;;;1.36;66.45;99753.46;1761899;81;25401;-73
2022/02/20 02:40:59;;;;;;;13.70;4.28;;;;;;;1.33;66.55;99751.85;1762071;81;28043;-73
2022/02/20 02:43:27;;;;;;;7.95;3.98;;;;;;;1.31;66.61;99749.45;1761011;81;25383;-72
2022/02/20 02:45:54;;;;;;;7.65;3.67;;;;;;;1.29;66.67;99737.74;1761870;81;25542;-72
2022/02/20 02:48:21;;;;;;;12.53;4.37;;;;;;;1.29;66.89;99740.91;1761906;81;25542;-72
2022/02/20 02:50:48;;;;;;;10.88;4.72;;;;;;;1.29;66.96;99733.75;1734197;81;25612;-72
2022/02/20 02:53:15;;;;;;;13.65;4.12;;;;;;;1.30;66.83;99726.00;1761919;81;28027;-73
2022/02/20 02:55:47;;;;;;;10.55;3.85;;;;;;;1.32;66.96;99725.75;1761811;81;25523;-72
2022/02/20 02:58:23;;;;;;;8.65;3.92;;;;;;;1.33;66.81;99720.70;1761309;81;25563;-72
2022/02/20 03:00:52;;;;;;;11.40;4.22;;;;;;;1.35;66.91;99721.23;1762011;81;25481;-72
2022/02/20 03:03:19;;;;;;;9.08;3.98;;;;;;;1.36;66.81;99714.03;1762217;81;25457;-72
2022/02/20 03:05:45;;;;;;;8.68;3.75;;;;;;;1.36;66.73;99712.16;1736576;81;27549;-72
2022/02/20 03:08:12;;;;;;;9.58;4.05;;;;;;;1.35;66.71;99710.58;1762164;81;25735;-72
2022/02/20 03:10:38;;;;;;;10.55;3.22;;;;;;;1.35;66.71;99704.45;1762228;81;25349;-72
2022/02/20 03:13:07;;;;;;;9.25;3.37;;;;;;;1.35;66.72;99708.45;1761934;81;25412;-72
2022/02/20 03:15:33;;;;;;;10.18;3.65;;;;;;;1.35;66.82;99707.11;1762099;81;25585;-72
2022/02/20 03:18:00;;;;;;;11.95;4.25;;;;;;;1.35;66.85;99702.58;1760478;81;28024;-72
2022/02/20 03:20:27;;;;;;;10.10;4.30;;;;;;;1.36;66.80;99706.03;1756840;81;25602;-72
2022/02/20 03:22:53;;;;;;;7.83;3.70;;;;;;;1.36;66.78;99701.50;1727127;81;25401;-72
2022/02/20 03:25:19;;;;;;;11.78;4.47;;;;;;;1.37;66.74;99704.44;1757123;81;25508;-72
2022/02/20 03:27:46;;;;;;;10.00;3.70;;;;;;;1.37;66.71;99693.78;1727456;81;25454;-72
2022/02/20 03:30:13;;;;;;;11.00;3.92;;;;;;;1.36;66.71;99700.16;1727181;81;27575;-72
2022/02/20 03:32:40;;;;;;;12.73;4.28;;;;;;;1.35;66.61;99698.58;1756313;81;25429;-72
2022/02/20 03:35:07;;;;;;;10.90;4.60;;;;;;;1.34;66.62;99691.64;1756413;81;25558;-72
2022/02/20 03:37:33;;;;;;;9.93;3.40;;;;;;;1.33;66.66;99684.72;1756334;81;25456;-72
2022/02/20 03:40:00;;;;;;;10.82;3.62;;;;;;;1.32;66.58;99683.11;1756403;81;25603;-72
2022/02/20 03:42:27;;;;;;;9.90;3.92;;;;;;;1.30;66.63;99683.37;1756289;81;28161;-72
2022/02/20 03:44:53;;;;;;;10.72;3.83;;;;;;;1.28;66.58;99671.39;1756223;81;25386;-72
2022/02/20 03:47:20;;;;;;;8.70;3.85;;;;;;;1.25;66.56;99667.91;1756332;81;25598;-72
2022/02/20 03:49:46;;;;;;;13.35;3.87;;;;;;;1.25;66.70;99673.23;1756283;81;25456;-72
2022/02/20 03:52:13;;;;;;;10.28;3.92;;;;;;;1.23;66.79;99664.17;1756349;81;25624;-72
2022/02/20 03:54:39;;;;;;;11.45;4.12;;;;;;;1.24;66.74;99663.13;1756292;81;27403;-72
2022/02/20 03:57:06;;;;;;;15.53;4.72;;;;;;;1.23;66.70;99646.86;1756183;81;25499;-72
2022/02/20 03:59:32;;;;;;;12.63;4.00;;;;;;;1.24;66.78;99651.13;1756408;81;25483;-72
2022/02/20 04:01:59;;;;;;;12.43;4.25;;;;;;;1.25;66.78;99646.59;1756275;81;25489;-72
2022/02/20 04:04:26;;;;;;;8.98;4.12;;;;;;;1.25;66.72;99646.59;1756325;81;25381;-72
2022/02/20 04:06:52;;;;;;;11.05;3.83;;;;;;;1.25;66.76;99645.27;1756283;81;27471;-72
2022/02/20 04:09:19;;;;;;;10.10;4.47;;;;;;;1.26;66.64;99641.52;1756221;81;25531;-72
2022/02/20 04:11:45;;;;;;;10.88;4.17;;;;;;;1.26;66.66;99635.67;1756332;81;25608;-72
2022/02/20 04:14:12;;;;;;;9.83;3.80;;;;;;;1.27;66.64;99630.59;1756284;81;25622;-72
2022/02/20 04:16:39;;;;;;;14.05;4.55;;;;;;;1.27;66.54;99627.94;1756274;81;25553;-72
2022/02/20 04:19:05;;;;;;;12.70;4.67;;;;;;;1.26;66.46;99625.02;1756185;81;27503;-72
2022/02/20 04:21:32;;;;;;;13.45;4.50;;;;;;;1.26;66.45;99621.53;1756200;81;25511;-72
2022/02/20 04:23:58;;;;;;;8.20;3.50;;;;;;;1.26;66.41;99621.53;1756321;81;25527;-72
2022/02/20 04:26:25;;;;;;;12.10;3.98;;;;;;;1.26;66.40;99619.69;1756248;81;25616;-72
2022/02/20 04:28:52;;;;;;;14.35;4.15;;;;;;;1.27;66.39;99619.15;1756366;81;25610;-73
2022/02/20 04:31:20;;;;;;;10.45;4.22;;;;;;;1.27;66.28;99616.48;1756324;81;27438;-72
2022/02/20 04:33:47;;;;;;;11.38;4.33;;;;;;;1.27;66.20;99614.61;1756237;81;25678;-72
2022/02/20 04:36:14;;;;;;;10.90;3.92;;;;;;;1.29;66.08;99610.35;1756306;81;25451;-73
2022/02/20 04:38:40;;;;;;;8.25;4.30;;;;;;;1.28;66.06;99600.23;1756295;81;26050;-73
2022/02/20 04:41:07;;;;;;;10.45;4.10;;;;;;;1.29;66.08;99591.19;1756413;81;25426;-72
2022/02/20 04:43:33;;;;;;;16.55;4.50;;;;;;;1.31;65.82;99596.23;1756421;81;27999;-73
2022/02/20 04:46:00;;;;;;;10.78;4.03;;;;;;;1.32;65.81;99592.52;1756183;81;25578;-72
2022/02/20 04:48:27;;;;;;;13.20;4.50;;;;;;;1.33;65.70;99587.97;1756370;81;25594;-72
2022/02/20 04:50:54;;;;;;;13.43;3.58;;;;;;;1.34;65.75;99569.60;1756256;81;26120;-72
2022/02/20 04:53:21;;;;;;;11.10;4.00;;;;;;;1.35;65.59;99574.67;1756324;81;25609;-73
2022/02/20 04:55:47;;;;;;;15.93;4.80;;;;;;;1.35;65.60;99568.00;1756352;81;27633;-72
2022/02/20 04:58:17;;;;;;;11.60;3.72;;;;;;;1.36;65.55;99569.59;1756199;81;25756;-74
2022/02/20 05:00:44;;;;;;;8.60;3.85;;;;;;;1.36;65.72;99565.59;1756426;81;25525;-72
2022/02/20 05:03:10;;;;;;;8.53;4.22;;;;;;;1.37;65.43;99570.41;1756323;81;25457;-72
2022/02/20 05:05:37;;;;;;;13.00;4.33;;;;;;;1.36;65.40;99561.59;1726887;81;25400;-72
2022/02/20 05:08:06;;;;;;;12.40;4.12;;;;;;;1.37;65.38;99557.88;1756259;81;27445;-73
2022/02/20 05:10:32;;;;;;;13.08;3.95;;;;;;;1.37;65.42;99555.21;1756227;81;25818;-72
2022/02/20 05:12:59;;;;;;;10.53;4.25;;;;;;;1.37;65.33;99544.55;1756239;81;25471;-72
2022/02/20 05:15:25;;;;;;;12.75;4.55;;;;;;;1.37;65.23;99551.22;1756253;81;25464;-73
2022/02/20 05:17:52;;;;;;;8.98;4.45;;;;;;;1.38;65.19;99551.49;1756315;81;25559;-72
2022/02/20 05:20:18;;;;;;;9.68;4.30;;;;;;;1.37;65.33;99545.88;1756277;81;27564;-72
2022/02/20 05:22:45;;;;;;;10.40;4.17;;;;;;;1.37;65.22;99545.09;1756492;81;25451;-72
2022/02/20 05:25:11;;;;;;;7.78;3.95;;;;;;;1.38;65.18;99551.49;1756410;81;25613;-72
2022/02/20 05:27:42;;;;;;;12.40;3.95;;;;;;;1.39;65.17;99550.95;1756409;81;26105;-74
2022/02/20 05:30:16;;;;;;;12.60;4.47;;;;;;;1.39;65.12;99546.41;1727663;81;25629;-72
2022/02/20 05:32:42;;;;;;;12.63;5.08;;;;;;;1.41;65.18;99547.48;1756188;81;27416;-72
2022/02/20 05:35:09;;;;;;;12.75;4.40;;;;;;;1.40;65.25;99545.36;1756201;81;25731;-72
2022/02/20 05:37:41;;;;;;;13.35;4.37;;;;;;;1.41;65.14;99541.61;1756288;81;25550;-72
2022/02/20 05:40:11;;;;;;;11.35;4.33;;;;;;;1.42;65.04;99544.55;1756224;81;25561;-73
2022/02/20 05:42:37;;;;;;;11.88;4.67;;;;;;;1.42;65.12;99541.09;1756334;81;25689;-73
2022/02/20 05:45:06;;;;;;;12.25;4.60;;;;;;;1.42;64.77;99542.43;1756345;81;28207;-73
2022/02/20 05:47:33;;;;;;;14.77;4.77;;;;;;;1.41;64.81;99533.61;1756372;81;25731;-73
2022/02/20 05:49:59;;;;;;;10.40;4.55;;;;;;;1.44;64.64;99532.30;1756231;81;25438;-73
2022/02/20 05:52:27;;;;;;;15.25;5.12;;;;;;;1.44;64.70;99533.63;1756203;81;25516;-73
2022/02/20 05:54:54;;;;;;;15.05;4.53;;;;;;;1.45;64.73;99521.91;1726802;81;25600;-73
2022/02/20 05:57:21;;;;;;;13.32;4.70;;;;;;;1.45;64.76;99527.25;1756175;81;27562;-73
2022/02/20 05:59:47;;;;;;;9.38;4.92;;;;;;;1.45;64.83;99525.38;1756239;81;25602;-73
2022/02/20 06:02:15;;;;;;;15.83;6.65;;;;;;;1.47;64.87;99526.44;1756169;81;25555;-73
2022/02/20 06:04:41;;;;;;;13.45;4.75;;;;;;;1.47;64.79;99527.77;1756174;81;25628;-73
2022/02/20 06:07:10;;;;;;;10.78;4.87;;;;;;;1.46;64.68;99534.98;1756251;81;25628;-73
2022/02/20 06:09:37;;;;;;;18.75;5.35;;;;;;;1.47;64.81;99522.44;1727190;81;27537;-73
2022/02/20 06:12:04;;;;;;;12.88;5.20;;;;;;;1.47;64.75;99519.78;1756112;81;25698;-73
2022/02/20 06:14:31;;;;;;;13.75;5.75;;;;;;;1.47;64.71;99522.44;1756193;81;25375;-73
2022/02/20 06:16:57;;;;;;;15.03;6.58;;;;;;;1.48;64.74;99520.84;1756125;81;25540;-72
2022/02/20 06:19:23;;;;;;;12.28;5.28;;;;;;;1.47;64.79;99513.11;1758638;81;25396;-73
2022/02/20 06:21:50;;;;;;;16.00;6.30;;;;;;;1.48;64.73;99505.36;1733978;81;27461;-73
2022/02/20 06:24:16;;;;;;;17.20;5.83;;;;;;;1.50;64.68;99511.25;1761785;81;25617;-73
2022/02/20 06:26:43;;;;;;;13.40;4.97;;;;;;;1.52;64.78;99512.31;1761874;81;25554;-73
2022/02/20 06:29:10;;;;;;;12.75;5.58;;;;;;;1.51;64.70;99503.50;1761962;81;25586;-72
2022/02/20 06:31:36;;;;;;;15.38;6.80;;;;;;;1.53;64.54;99501.91;1762070;81;25593;-73
2022/02/20 06:34:03;;;;;;;16.12;6.15;;;;;;;1.52;64.62;99504.33;1762009;81;27623;-73
2022/02/20 06:36:29;;;;;;;15.43;6.50;;;;;;;1.55;64.69;99510.42;1761912;81;25711;-73
2022/02/20 06:38:56;;;;;;;14.93;6.00;;;;;;;1.57;64.86;99504.32;1762039;81;25433;-73
2022/02/20 06:41:22;;;;;;;13.03;6.28;;;;;;;1.60;64.80;99500.58;1761978;81;26033;-74
2022/02/20 06:43:49;;;;;;;13.75;5.90;;;;;;;1.63;64.54;99504.56;1762089;81;25633;-74
2022/02/20 06:46:16;;;;;;;15.28;5.85;;;;;;;1.63;64.72;99500.02;1762019;81;27502;-74
2022/02/20 06:48:43;;;;;;;17.55;6.67;;;;;;;1.65;64.57;99496.58;1761986;81;25860;-74
2022/02/20 06:51:10;;;;;;;17.05;5.83;;;;;;;1.66;64.70;99499.48;1734270;81;25617;-74
2022/02/20 06:53:36;;;;;;;17.05;6.22;;;;;;;1.71;64.58;99495.23;1762062;81;26207;-73
2022/02/20 06:56:03;;;;;;;16.77;6.00;;;;;;;1.73;64.28;99497.09;1762075;81;25503;-73
2022/02/20 06:58:30;;;;;;;13.38;6.05;;;;;;;1.74;64.28;99490.67;1762079;81;27433;-73
2022/02/20 07:00:56;;;;;;;13.22;6.35;;;;;;;1.76;64.46;99492.02;1734198;81;25624;-73
2022/02/20 07:03:23;;;;;;;18.55;6.30;;;;;;;1.78;64.42;99489.08;1762025;81;25635;-73
2022/02/20 07:05:49;;;;;;;16.62;6.50;;;;;;;1.79;64.32;99482.14;1762003;81;25603;-74
2022/02/20 07:08:16;;;;;;;13.05;5.50;;;;;;;1.82;64.21;99482.94;1762037;81;25463;-74
2022/02/20 07:10:43;;;;;;;15.00;5.37;;;;;;;1.86;64.37;99481.32;1762143;81;27585;-73
2022/02/20 07:13:09;;;;;;;16.77;7.20;;;;;;;1.90;64.19;99472.23;1734064;81;25670;-73
2022/02/20 07:15:36;;;;;;;14.90;6.45;;;;;;;1.95;64.25;99473.56;1761989;81;25595;-74
2022/02/20 07:18:04;;;;;;;11.48;5.17;;;;;;;2.00;64.15;99472.75;1761974;81;25618;-74
2022/02/20 07:20:31;;;;;;;14.38;5.80;;;;;;;2.05;64.05;99467.40;1757668;81;25692;-74
2022/02/20 07:22:58;;;;;;;12.03;5.40;;;;;;;2.11;64.05;99472.17;1756768;81;28187;-74
2022/02/20 07:25:24;;;;;;;12.93;5.65;;;;;;;2.17;63.79;99468.42;1756224;81;25464;-74
2022/02/20 07:27:54;;;;;;;16.60;7.10;;;;;;;2.17;63.68;99460.42;1756295;81;25421;-73
2022/02/20 07:30:23;;;;;;;12.80;6.03;;;;;;;2.23;63.89;99460.13;1756334;81;25505;-74
2022/02/20 07:32:50;;;;;;;20.53;6.07;;;;;;;2.28;63.76;99475.30;1756593;81;25602;-73
2022/02/20 07:35:17;;;;;;;16.52;6.62;;;;;;;2.30;63.79;99466.51;1756412;81;27463;-73
2022/02/20 07:37:43;;;;;;;19.17;7.33;;;;;;;2.37;63.53;99471.00;1756612;81;25531;-74
2022/02/20 07:40:11;;;;;;;21.57;7.37;;;;;;;2.42;63.66;99469.64;1756721;81;25466;-75
2022/02/20 07:42:38;;;;;;;17.85;7.80;;;;;;;2.51;63.26;99469.86;1756243;81;26103;-74
2022/02/20 07:45:07;;;;;;;15.85;6.28;;;;;;;2.59;63.45;99467.16;1756303;81;25477;-74
2022/02/20 07:47:52;;;;;;;22.45;8.10;;;;;;;2.69;62.96;99474.30;1742827;81;28170;-74
2022/02/20 07:50:23;;;;;;;17.00;6.70;;;;;;;2.78;62.74;99473.44;1720986;83;25624;-73
2022/02/20 07:52:50;;;;;;;17.85;6.47;;;;;;;2.86;62.65;99469.41;1754764;81;25633;-74
2022/02/20 07:55:18;;;;;;;13.10;6.28;;;;;;;2.94;62.65;99466.11;1754754;81;25468;-73
2022/02/20 07:57:46;;;;;;;15.25;6.60;;;;;;;3.01;61.85;99465.80;1754779;81;25645;-74
2022/02/20 08:00:20;;;;;;;16.95;6.20;;;;;;;3.12;61.04;99469.21;1754858;81;27032;-73
2022/02/20 08:02:46;;;;;;;22.17;6.65;;;;;;;3.26;62.03;99457.34;1754964;81;25872;-73
2022/02/20 08:05:14;;;;;;;15.05;6.95;;;;;;;3.36;61.95;99447.89;1756279;81;25578;-75
2022/02/20 08:07:40;;;;;;;14.47;6.90;;;;;;;3.47;62.25;99445.36;1755763;81;25553;-75
2022/02/20 08:10:09;;;;;;;16.73;6.03;;;;;;;3.61;62.23;99438.02;1755234;81;25623;-74
2022/02/20 08:12:36;;;;;;;21.25;7.92;;;;;;;3.78;61.71;99443.74;1755202;80;27477;-75
2022/02/20 08:15:08;;;;;;;20.82;7.35;;;;;;;3.93;60.67;99448.10;1734874;82;25682;-74
2022/02/20 08:17:47;;;;;;;19.45;6.65;;;;;;;4.06;60.61;99444.73;1716111;81;25605;-75
2022/02/20 08:20:16;;;;;;;17.30;6.47;;;;;;;4.37;60.88;99444.35;1725296;82;25496;-73
2022/02/20 08:22:43;;;;;;;13.72;6.45;;;;;;;4.71;58.97;99433.19;1734692;82;25402;-74
2022/02/20 08:25:12;;;;;;;14.30;7.00;;;;;;;4.77;59.25;99431.48;1719636;82;27560;-74
2022/02/20 08:27:39;;;;;;;19.85;7.17;;;;;;;4.88;58.38;99431.33;1735341;82;25600;-73
2022/02/20 08:30:10;;;;;;;14.33;5.90;;;;;;;4.98;58.41;99437.31;1735561;82;25214;-75
2022/02/20 08:32:37;;;;;;;13.22;6.15;;;;;;;5.05;57.22;99425.67;1734435;82;25704;-74
2022/02/20 08:35:08;;;;;;;13.85;6.10;;;;;;;5.12;57.75;99427.19;1734512;82;25438;-72
2022/02/20 08:37:39;;;;;;;12.95;5.78;;;;;;;5.17;57.02;99420.41;1734423;82;27445;-71
2022/02/20 08:40:07;;;;;;;16.10;6.10;;;;;;;5.30;56.67;99425.00;1718663;81;25819;-71
2022/02/20 08:42:33;;;;;;;14.85;5.70;;;;;;;5.35;56.74;99420.89;1701815;84;25604;-71
2022/02/20 08:45:00;;;;;;;16.48;6.08;;;;;;;5.56;56.12;99417.84;1699537;84;25648;-70
2022/02/20 08:47:27;;;;;;;14.00;5.87;;;;;;;5.72;56.05;99410.30;1724458;82;25635;-70
2022/02/20 08:49:54;;;;;;;18.00;5.95;;;;;;;5.85;56.50;99405.48;1732392;82;27496;-71
2022/02/20 08:52:22;;;;;;;14.65;5.95;;;;;;;6.18;56.46;99400.03;1732479;82;25681;-71
2022/02/20 08:54:51;;;;;;;12.70;5.40;;;;;;;6.44;55.20;99409.66;1732567;82;25640;-71
2022/02/20 08:57:19;;;;;;;18.27;6.42;;;;;;;6.56;56.16;99397.59;1723993;82;25520;-71
2022/02/20 08:59:46;;;;;;;13.45;5.37;;;;;;;6.85;55.10;99397.97;1731656;82;25615;-67
2022/02/20 09:02:14;;;;;;;15.95;5.47;;;;;;;6.97;56.12;99401.45;1679123;84;27483;-71
2022/02/20 09:04:41;;;;;;;12.73;5.28;;;;;;;6.99;55.18;99395.77;1731650;82;25867;-70
2022/02/20 09:07:07;;;;;;;14.18;5.20;;;;;;;6.96;55.12;99399.84;1703316;84;25609;-73
2022/02/20 09:09:36;;;;;;;13.75;5.83;;;;;;;7.00;54.88;99389.27;1731686;82;25550;-70
2022/02/20 09:12:06;;;;;;;11.87;5.43;;;;;;;7.06;56.02;99384.80;1703604;84;25660;-72
2022/02/20 09:14:33;;;;;;;13.45;5.30;;;;;;;7.39;56.83;99376.45;1731904;82;28015;-69
2022/02/20 09:17:01;;;;;;;12.90;5.40;;;;;;;7.79;55.54;99385.06;1703189;84;25429;-70
2022/02/20 09:19:30;;;;;;;17.50;5.83;;;;;;;7.86;52.57;99382.14;1732154;81;25546;-72
2022/02/20 09:21:57;;;;;;;11.85;4.80;;;;;;;7.56;52.03;99361.47;1746922;82;25720;-72
2022/02/20 09:24:24;;;;;;;14.98;4.83;;;;;;;7.36;51.46;99382.45;1746905;82;25414;-71
2022/02/20 09:26:51;;;;;;;19.32;8.33;;;;;;;7.09;51.75;99368.63;1746840;82;27463;-71
2022/02/20 09:29:19;;;;;;;12.90;4.72;;;;;;;6.94;52.47;99379.20;1746962;82;25982;-72
2022/02/20 09:31:45;;;;;;;11.35;4.55;;;;;;;6.83;52.44;99375.98;1723300;82;25667;-71
2022/02/20 09:34:12;;;;;;;10.40;4.67;;;;;;;6.69;52.45;99377.39;1743974;81;25647;-72
2022/02/20 09:36:39;;;;;;;9.75;5.05;;;;;;;6.54;51.70;99381.77;1681666;81;40924;-72
2022/02/20 09:39:06;;;;;;;13.45;4.92;;;;;;;6.34;52.64;99369.59;1727040;82;28265;-72
2022/02/20 09:41:33;;;;;;;12.80;4.58;;;;;;;6.21;52.05;99366.39;1727073;83;25933;-71
2022/02/20 09:44:01;;;;;;;14.20;5.58;;;;;;;6.07;52.33;99381.97;1703741;84;25667;-70
2022/02/20 09:46:29;;;;;;;16.27;5.83;;;;;;;5.90;52.23;99380.44;1703734;84;25680;-72
2022/02/20 09:48:59;;;;;;;12.93;5.40;;;;;;;5.77;52.71;99372.62;1703727;84;25679;-72
2022/02/20 09:51:28;;;;;;;14.87;5.72;;;;;;;5.70;53.16;99366.31;1703875;84;27472;-71
2022/02/20 09:53:56;;;;;;;12.45;5.35;;;;;;;5.65;52.92;99369.66;1676484;84;25627;-72
2022/02/20 09:56:23;;;;;;;13.22;5.10;;;;;;;5.65;53.69;99379.05;1703699;84;25700;-73
2022/02/20 09:58:50;;;;;;;14.63;5.03;;;;;;;5.68;53.65;99371.19;1704590;84;26166;-74
2022/02/20 10:01:17;;;;;;;12.65;4.60;;;;;;;5.72;54.04;99369.52;1703808;84;25747;-74
2022/02/20 10:03:48;;;;;;;12.28;5.58;;;;;;;6.01;54.57;99363.59;1696561;84;28042;-75
2022/02/20 10:06:25;;;;;;;12.73;4.85;;;;;;;6.14;54.50;99362.22;1703822;84;25703;-74
2022/02/20 10:08:55;;;;;;;9.28;4.62;;;;;;;6.14;52.09;99365.45;1696469;84;25613;-75
2022/02/20 10:11:27;;;;;;;11.05;4.47;;;;;;;5.97;52.87;99389.69;1703998;84;25660;-75
2022/02/20 10:14:05;;;;;;;7.58;3.80;;;;;;;5.78;53.46;99378.25;1704051;84;25227;-74
2022/02/20 10:16:33;;;;;;;10.70;4.30;;;;;;;5.62;54.01;99371.06;1695429;84;27422;-75
2022/02/20 10:19:01;;;;;;;7.55;4.15;;;;;;;5.54;54.25;99373.88;1703665;84;25648;-74
2022/02/20 10:21:33;;;;;;;9.93;3.85;;;;;;;5.44;54.58;99380.77;1698104;84;25639;-76
2022/02/20 10:24:11;;;;;;;8.60;4.20;;;;;;;5.33;55.12;99369.98;1703206;84;25607;-74
2022/02/20 10:26:45;;;;;;;12.47;4.58;;;;;;;5.22;55.58;99366.69;1698014;84;25583;-74
2022/02/20 10:29:16;;;;;;;12.80;4.17;;;;;;;5.18;55.96;99377.77;1704821;84;27352;-73
2022/02/20 10:31:53;;;;;;;9.78;4.17;;;;;;;5.10;56.10;99379.23;1703243;84;26188;-74
2022/02/20 10:34:26;;;;;;;13.95;5.10;;;;;;;5.03;56.31;99368.89;1702874;84;25622;-74
2022/02/20 10:37:05;;;;;;;9.98;4.22;;;;;;;4.98;56.82;99366.29;1681089;84;25753;-74
2022/02/20 10:39:36;;;;;;;20.82;8.60;;;;;;;4.98;56.82;99377.56;1676351;85;25719;-72
2022/02/20 10:42:13;;;;;;;7.78;4.40;;;;;;;4.95;57.20;99368.21;1675195;85;27335;-75
2022/02/20 10:45:00;;;;;;;11.10;5.17;;;;;;;5.03;57.70;99362.73;1675116;85;25643;-76
2022/02/20 10:47:32;;;;;;;12.53;4.42;;;;;;;5.10;57.71;99357.78;1700190;84;25616;-77
2022/02/20 10:50:21;;;;;;;10.98;4.45;;;;;;;5.11;57.70;99361.25;1700033;84;25757;-77
2022/02/20 10:53:23;;;;;;;7.67;4.45;;;;;;;5.05;57.87;99353.85;1699329;84;25442;-76
2022/02/20 10:55:48;;;;;;;8.73;4.42;;;;;;;4.98;58.04;99355.57;1709694;81;27376;-74
2022/02/20 10:58:35;;;;;;;7.50;4.45;;;;;;;4.96;58.57;99357.75;1726675;83;25278;-76
2022/02/20 11:01:04;;;;;;;10.05;4.67;;;;;;;4.97;58.86;99361.22;1727349;83;25361;-75
2022/02/20 11:03:33;;;;;;;8.30;4.47;;;;;;;4.94;59.02;99359.94;1729397;83;25316;-74
2022/02/20 11:06:01;;;;;;;11.63;4.92;;;;;;;4.95;59.87;99384.30;1729880;83;25508;-74
2022/02/20 11:08:30;;;;;;;14.38;4.25;;;;;;;4.95;59.87;99384.30;1729424;83;27974;-76
2022/02/20 11:10:57;;;;;;;9.10;4.08;;;;;;;4.82;60.12;99369.78;1729146;83;25749;-76
2022/02/20 11:13:25;;;;;;;8.78;4.10;;;;;;;4.80;60.51;99371.96;1729375;83;25759;-76
2022/02/20 11:15:54;;;;;;;10.38;5.00;;;;;;;4.76;60.99;99375.52;1729567;83;25653;-79
2022/02/20 11:18:22;;;;;;;8.53;4.67;;;;;;;4.70;62.23;99374.80;1730199;83;25716;-79
2022/02/20 11:20:52;;;;;;;10.65;5.10;;;;;;;4.63;61.79;99371.67;1729760;83;27380;-78
2022/02/20 11:23:23;;;;;;;;;;;;;;;4.63;62.07;99366.32;1702899;84;25707;-78
2022/02/20 11:25:53;;;;;;;7.90;4.20;;;;;;;4.63;62.52;99367.66;1700527;84;26351;-78
2022/02/20 11:28:21;;;;;;;6.25;4.22;;;;;;;4.62;63.03;99368.21;1701462;84;25686;-79
2022/02/20 11:30:49;;;;;;;12.07;5.28;;;;;;;4.63;63.61;99363.12;1700965;84;25536;-76
2022/02/20 11:33:17;;;;;;;7.58;4.15;;;;;;;4.59;63.42;99363.98;1700098;84;27038;-74
2022/02/20 11:35:49;;;;;;;11.97;5.15;;;;;;;4.63;64.28;99374.36;1697631;83;29964;-75
2022/02/20 11:38:21;;;;;;;6.97;4.22;;;;;;;4.65;65.37;99370.31;1699865;84;25719;-73
2022/02/20 11:41:04;;;;;;;7.55;4.20;;;;;;;4.57;65.31;99381.69;1699842;84;25854;-76